Terminal Aerodrome Forecast
Issued by NWS Louisville, KY

Home | Current Version | Previous Version | Text Only | Print | Product List | Glossary On
Versions: 1 2 3 4 5 6 7 8 9 10 11 12 13 14 15 16
430
FTUS43 KLMK 101120
TAFLEX
TAF
KLEX 101120Z 1012/1112 25010KT 6SM -SHSN SCT024 BKN050
      TEMPO 1012/1015 1SM -SHSN BKN025
     FM101500 27011KT P6SM VCSH SCT025 BKN035
     FM102100 27010KT P6SM BKN035
     FM110200 26005KT P6SM BKN040=

USA.gov is the U.S. government's official web portal to all federal, state and local government web resources and services.